sensor_id;sensor_type;location;lat;lon;timestamp;temperature;humidity
29729;DHT22;20055;51.498;11.960;2023-12-29T00:00:43;8.60;99.90
29729;DHT22;20055;51.498;11.960;2023-12-29T00:03:10;8.60;99.90
29729;DHT22;20055;51.498;11.960;2023-12-29T00:05:36;8.60;99.90
29729;DHT22;20055;51.498;11.960;2023-12-29T00:08:03;8.60;99.90
29729;DHT22;20055;51.498;11.960;2023-12-29T00:10:29;8.60;99.90
29729;DHT22;20055;51.498;11.960;2023-12-29T00:12:55;8.60;99.90
29729;DHT22;20055;51.498;11.960;2023-12-29T00:15:21;8.60;99.90
29729;DHT22;20055;51.498;11.960;2023-12-29T00:17:47;8.60;99.90
29729;DHT22;20055;51.498;11.960;2023-12-29T00:20:14;8.60;99.90
29729;DHT22;20055;51.498;11.960;2023-12-29T00:22:40;8.60;99.90
29729;DHT22;20055;51.498;11.960;2023-12-29T00:25:06;8.70;99.90
29729;DHT22;20055;51.498;11.960;2023-12-29T00:27:35;8.80;99.90
29729;DHT22;20055;51.498;11.960;2023-12-29T00:30:02;8.70;99.90
29729;DHT22;20055;51.498;11.960;2023-12-29T00:32:29;8.80;99.90
29729;DHT22;20055;51.498;11.960;2023-12-29T00:34:57;8.90;99.90
29729;DHT22;20055;51.498;11.960;2023-12-29T00:37:23;8.90;99.90
29729;DHT22;20055;51.498;11.960;2023-12-29T00:39:49;9.00;99.90
29729;DHT22;20055;51.498;11.960;2023-12-29T00:42:15;9.00;99.90
29729;DHT22;20055;51.498;11.960;2023-12-29T00:44:41;9.10;99.90
29729;DHT22;20055;51.498;11.960;2023-12-29T00:47:07;9.10;99.90
29729;DHT22;20055;51.498;11.960;2023-12-29T00:49:34;9.00;99.90
29729;DHT22;20055;51.498;11.960;2023-12-29T00:52:00;9.00;99.90
29729;DHT22;20055;51.498;11.960;2023-12-29T00:54:28;9.10;99.90
29729;DHT22;20055;51.498;11.960;2023-12-29T00:56:54;9.20;99.90
29729;DHT22;20055;51.498;11.960;2023-12-29T00:59:21;9.20;99.90
29729;DHT22;20055;51.498;11.960;2023-12-29T01:01:47;9.20;99.90
29729;DHT22;20055;51.498;11.960;2023-12-29T01:04:13;9.30;99.90
29729;DHT22;20055;51.498;11.960;2023-12-29T01:06:40;9.20;99.90
29729;DHT22;20055;51.498;11.960;2023-12-29T01:09:06;9.20;99.90
29729;DHT22;20055;51.498;11.960;2023-12-29T01:11:34;9.20;99.90
29729;DHT22;20055;51.498;11.960;2023-12-29T01:14:01;9.20;99.90
29729;DHT22;20055;51.498;11.960;2023-12-29T01:16:27;9.20;99.90
29729;DHT22;20055;51.498;11.960;2023-12-29T01:18:53;9.10;99.90
29729;DHT22;20055;51.498;11.960;2023-12-29T01:21:19;9.10;99.90
29729;DHT22;20055;51.498;11.960;2023-12-29T01:23:46;9.20;99.90
29729;DHT22;20055;51.498;11.960;2023-12-29T01:26:12;9.00;99.90
29729;DHT22;20055;51.498;11.960;2023-12-29T01:28:38;9.00;99.90
29729;DHT22;20055;51.498;11.960;2023-12-29T01:31:04;9.00;99.90
29729;DHT22;20055;51.498;11.960;2023-12-29T01:33:31;9.00;99.90
29729;DHT22;20055;51.498;11.960;2023-12-29T01:35:57;9.00;99.90
29729;DHT22;20055;51.498;11.960;2023-12-29T01:38:23;9.10;99.90
29729;DHT22;20055;51.498;11.960;2023-12-29T01:40:49;9.10;99.90
29729;DHT22;20055;51.498;11.960;2023-12-29T01:43:15;9.00;99.90
29729;DHT22;20055;51.498;11.960;2023-12-29T01:45:42;9.10;99.90
29729;DHT22;20055;51.498;11.960;2023-12-29T01:48:09;9.10;99.90
29729;DHT22;20055;51.498;11.960;2023-12-29T01:50:35;9.10;99.90
29729;DHT22;20055;51.498;11.960;2023-12-29T01:53:02;9.20;99.90
29729;DHT22;20055;51.498;11.960;2023-12-29T01:55:29;9.10;99.90
29729;DHT22;20055;51.498;11.960;2023-12-29T01:57:56;9.10;99.90
29729;DHT22;20055;51.498;11.960;2023-12-29T02:00:23;9.20;99.90
29729;DHT22;20055;51.498;11.960;2023-12-29T02:02:50;9.10;99.90
29729;DHT22;20055;51.498;11.960;2023-12-29T02:05:17;9.00;99.90
29729;DHT22;20055;51.498;11.960;2023-12-29T02:07:45;9.00;99.90
29729;DHT22;20055;51.498;11.960;2023-12-29T02:10:12;9.00;99.90
29729;DHT22;20055;51.498;11.960;2023-12-29T02:12:42;9.10;99.90
29729;DHT22;20055;51.498;11.960;2023-12-29T02:15:08;9.10;99.90
29729;DHT22;20055;51.498;11.960;2023-12-29T02:17:54;9.20;99.90
29729;DHT22;20055;51.498;11.960;2023-12-29T02:20:24;9.20;99.90
29729;DHT22;20055;51.498;11.960;2023-12-29T02:22:51;9.30;99.90
29729;DHT22;20055;51.498;11.960;2023-12-29T02:25:17;9.20;99.90
29729;DHT22;20055;51.498;11.960;2023-12-29T02:27:54;9.30;99.90
29729;DHT22;20055;51.498;11.960;2023-12-29T02:30:38;9.30;99.90
29729;DHT22;20055;51.498;11.960;2023-12-29T02:33:10;9.30;99.90
29729;DHT22;20055;51.498;11.960;2023-12-29T02:35:42;9.20;99.90
29729;DHT22;20055;51.498;11.960;2023-12-29T02:38:09;9.30;99.90
29729;DHT22;20055;51.498;11.960;2023-12-29T02:40:37;9.10;99.90
29729;DHT22;20055;51.498;11.960;2023-12-29T02:43:03;9.10;99.90
29729;DHT22;20055;51.498;11.960;2023-12-29T02:45:30;9.10;99.90
29729;DHT22;20055;51.498;11.960;2023-12-29T02:47:56;9.10;99.90
29729;DHT22;20055;51.498;11.960;2023-12-29T02:50:22;9.00;99.90
29729;DHT22;20055;51.498;11.960;2023-12-29T02:52:48;9.10;99.90
29729;DHT22;20055;51.498;11.960;2023-12-29T02:55:14;9.10;99.90
29729;DHT22;20055;51.498;11.960;2023-12-29T02:57:41;9.10;99.90
29729;DHT22;20055;51.498;11.960;2023-12-29T03:00:07;9.10;99.90
29729;DHT22;20055;51.498;11.960;2023-12-29T03:02:34;9.10;99.90
29729;DHT22;20055;51.498;11.960;2023-12-29T03:05:00;9.10;99.90
29729;DHT22;20055;51.498;11.960;2023-12-29T03:07:27;9.10;99.90
29729;DHT22;20055;51.498;11.960;2023-12-29T03:09:53;9.00;99.90
29729;DHT22;20055;51.498;11.960;2023-12-29T03:12:20;8.90;99.90
29729;DHT22;20055;51.498;11.960;2023-12-29T03:14:46;9.10;99.90
29729;DHT22;20055;51.498;11.960;2023-12-29T03:17:13;9.00;99.90
29729;DHT22;20055;51.498;11.960;2023-12-29T03:19:39;9.00;99.90
29729;DHT22;20055;51.498;11.960;2023-12-29T03:22:06;9.00;99.90
29729;DHT22;20055;51.498;11.960;2023-12-29T03:24:32;8.90;99.90
29729;DHT22;20055;51.498;11.960;2023-12-29T03:26:58;9.00;99.90
29729;DHT22;20055;51.498;11.960;2023-12-29T03:29:24;8.90;99.90
29729;DHT22;20055;51.498;11.960;2023-12-29T03:31:50;8.90;99.90
29729;DHT22;20055;51.498;11.960;2023-12-29T03:34:16;8.90;99.90
29729;DHT22;20055;51.498;11.960;2023-12-29T03:36:43;9.00;99.90
29729;DHT22;20055;51.498;11.960;2023-12-29T03:39:09;9.00;99.90
29729;DHT22;20055;51.498;11.960;2023-12-29T03:41:35;9.10;99.90
29729;DHT22;20055;51.498;11.960;2023-12-29T03:44:02;9.10;99.90
29729;DHT22;20055;51.498;11.960;2023-12-29T03:46:29;9.10;99.90
29729;DHT22;20055;51.498;11.960;2023-12-29T03:48:57;9.20;99.90
29729;DHT22;20055;51.498;11.960;2023-12-29T03:51:23;9.20;99.90
29729;DHT22;20055;51.498;11.960;2023-12-29T03:53:50;9.30;99.90
29729;DHT22;20055;51.498;11.960;2023-12-29T03:56:17;9.30;99.90
29729;DHT22;20055;51.498;11.960;2023-12-29T03:58:47;9.30;99.90
29729;DHT22;20055;51.498;11.960;2023-12-29T04:01:15;9.40;99.90
29729;DHT22;20055;51.498;11.960;2023-12-29T04:03:42;9.40;99.90
29729;DHT22;20055;51.498;11.960;2023-12-29T04:06:09;9.40;99.90
29729;DHT22;20055;51.498;11.960;2023-12-29T04:08:36;9.50;99.90
29729;DHT22;20055;51.498;11.960;2023-12-29T04:11:03;9.50;99.90
29729;DHT22;20055;51.498;11.960;2023-12-29T04:13:30;9.60;99.90
29729;DHT22;20055;51.498;11.960;2023-12-29T04:15:56;9.60;99.90
29729;DHT22;20055;51.498;11.960;2023-12-29T04:18:24;9.60;99.90
29729;DHT22;20055;51.498;11.960;2023-12-29T04:20:50;9.60;99.90
29729;DHT22;20055;51.498;11.960;2023-12-29T04:23:16;9.60;99.90
29729;DHT22;20055;51.498;11.960;2023-12-29T04:25:43;9.60;99.90
29729;DHT22;20055;51.498;11.960;2023-12-29T04:28:09;9.50;99.90
29729;DHT22;20055;51.498;11.960;2023-12-29T04:30:36;9.40;99.90
29729;DHT22;20055;51.498;11.960;2023-12-29T04:33:02;9.50;99.90
29729;DHT22;20055;51.498;11.960;2023-12-29T04:35:30;9.40;99.90
29729;DHT22;20055;51.498;11.960;2023-12-29T04:37:56;9.40;99.90
29729;DHT22;20055;51.498;11.960;2023-12-29T04:40:22;9.30;99.90
29729;DHT22;20055;51.498;11.960;2023-12-29T04:42:48;9.30;99.90
29729;DHT22;20055;51.498;11.960;2023-12-29T04:45:15;9.30;99.90
29729;DHT22;20055;51.498;11.960;2023-12-29T04:47:41;9.20;99.90
29729;DHT22;20055;51.498;11.960;2023-12-29T04:50:07;9.30;99.90
29729;DHT22;20055;51.498;11.960;2023-12-29T04:52:34;9.20;99.90
29729;DHT22;20055;51.498;11.960;2023-12-29T04:55:00;9.20;99.90
29729;DHT22;20055;51.498;11.960;2023-12-29T04:57:26;9.20;99.90
29729;DHT22;20055;51.498;11.960;2023-12-29T04:59:52;9.30;99.90
29729;DHT22;20055;51.498;11.960;2023-12-29T05:02:18;9.30;99.90
29729;DHT22;20055;51.498;11.960;2023-12-29T05:04:46;9.30;99.90
29729;DHT22;20055;51.498;11.960;2023-12-29T05:07:12;9.40;99.90
29729;DHT22;20055;51.498;11.960;2023-12-29T05:09:38;9.30;99.90
29729;DHT22;20055;51.498;11.960;2023-12-29T05:12:05;9.20;99.90
29729;DHT22;20055;51.498;11.960;2023-12-29T05:14:31;9.30;99.90
29729;DHT22;20055;51.498;11.960;2023-12-29T05:16:57;9.30;99.90
29729;DHT22;20055;51.498;11.960;2023-12-29T05:19:23;9.20;99.90
29729;DHT22;20055;51.498;11.960;2023-12-29T05:21:50;9.20;99.90
29729;DHT22;20055;51.498;11.960;2023-12-29T05:24:17;9.20;99.90
29729;DHT22;20055;51.498;11.960;2023-12-29T05:26:44;9.20;99.90
29729;DHT22;20055;51.498;11.960;2023-12-29T05:29:10;9.20;99.90
29729;DHT22;20055;51.498;11.960;2023-12-29T05:31:36;9.20;99.90
29729;DHT22;20055;51.498;11.960;2023-12-29T05:34:02;9.20;99.90
29729;DHT22;20055;51.498;11.960;2023-12-29T05:36:29;9.30;99.90
29729;DHT22;20055;51.498;11.960;2023-12-29T05:38:55;9.40;99.90
29729;DHT22;20055;51.498;11.960;2023-12-29T05:41:22;9.40;99.90
29729;DHT22;20055;51.498;11.960;2023-12-29T05:43:48;9.40;99.90
29729;DHT22;20055;51.498;11.960;2023-12-29T05:46:14;9.40;99.90
29729;DHT22;20055;51.498;11.960;2023-12-29T05:48:40;9.40;99.90
29729;DHT22;20055;51.498;11.960;2023-12-29T05:51:10;9.40;99.90
29729;DHT22;20055;51.498;11.960;2023-12-29T05:53:39;9.30;99.90
29729;DHT22;20055;51.498;11.960;2023-12-29T05:56:06;9.30;99.90
29729;DHT22;20055;51.498;11.960;2023-12-29T05:58:32;9.30;99.90
29729;DHT22;20055;51.498;11.960;2023-12-29T06:00:58;9.30;99.90
29729;DHT22;20055;51.498;11.960;2023-12-29T06:03:26;9.20;99.90
29729;DHT22;20055;51.498;11.960;2023-12-29T06:05:53;9.30;99.90
29729;DHT22;20055;51.498;11.960;2023-12-29T06:08:20;9.30;99.90
29729;DHT22;20055;51.498;11.960;2023-12-29T06:10:46;9.30;99.90
29729;DHT22;20055;51.498;11.960;2023-12-29T06:13:12;9.30;99.90
29729;DHT22;20055;51.498;11.960;2023-12-29T06:15:39;9.30;99.90
29729;DHT22;20055;51.498;11.960;2023-12-29T06:18:05;9.30;99.90
29729;DHT22;20055;51.498;11.960;2023-12-29T06:20:31;9.40;99.90
29729;DHT22;20055;51.498;11.960;2023-12-29T06:22:57;9.30;99.90
29729;DHT22;20055;51.498;11.960;2023-12-29T06:25:23;9.40;99.90
29729;DHT22;20055;51.498;11.960;2023-12-29T06:27:50;9.40;99.90
29729;DHT22;20055;51.498;11.960;2023-12-29T06:30:17;9.40;99.90
29729;DHT22;20055;51.498;11.960;2023-12-29T06:32:43;9.50;99.90
29729;DHT22;20055;51.498;11.960;2023-12-29T06:35:09;9.60;99.90
29729;DHT22;20055;51.498;11.960;2023-12-29T06:37:37;9.60;99.90
29729;DHT22;20055;51.498;11.960;2023-12-29T06:40:06;9.60;99.90
29729;DHT22;20055;51.498;11.960;2023-12-29T06:42:32;9.60;99.90
29729;DHT22;20055;51.498;11.960;2023-12-29T06:44:59;9.60;99.90
29729;DHT22;20055;51.498;11.960;2023-12-29T06:47:25;9.70;99.90
29729;DHT22;20055;51.498;11.960;2023-12-29T06:49:51;9.70;99.90
29729;DHT22;20055;51.498;11.960;2023-12-29T06:52:17;9.80;99.90
29729;DHT22;20055;51.498;11.960;2023-12-29T06:54:43;9.80;99.90
29729;DHT22;20055;51.498;11.960;2023-12-29T06:57:10;9.80;99.90
29729;DHT22;20055;51.498;11.960;2023-12-29T06:59:36;9.90;99.90
29729;DHT22;20055;51.498;11.960;2023-12-29T07:02:02;9.90;99.90
29729;DHT22;20055;51.498;11.960;2023-12-29T07:04:29;9.90;99.90
29729;DHT22;20055;51.498;11.960;2023-12-29T07:06:55;9.90;99.90
29729;DHT22;20055;51.498;11.960;2023-12-29T07:09:21;9.90;99.90
29729;DHT22;20055;51.498;11.960;2023-12-29T07:11:50;10.00;99.90
29729;DHT22;20055;51.498;11.960;2023-12-29T07:14:16;9.90;99.90
29729;DHT22;20055;51.498;11.960;2023-12-29T07:16:43;9.90;99.90
29729;DHT22;20055;51.498;11.960;2023-12-29T07:19:10;9.90;99.90
29729;DHT22;20055;51.498;11.960;2023-12-29T07:21:36;9.90;99.90
29729;DHT22;20055;51.498;11.960;2023-12-29T07:24:02;9.80;99.90
29729;DHT22;20055;51.498;11.960;2023-12-29T07:26:28;9.80;99.90
29729;DHT22;20055;51.498;11.960;2023-12-29T07:28:56;9.80;99.90
29729;DHT22;20055;51.498;11.960;2023-12-29T07:31:23;9.80;99.90
29729;DHT22;20055;51.498;11.960;2023-12-29T07:33:49;9.90;99.90
29729;DHT22;20055;51.498;11.960;2023-12-29T07:36:16;9.90;99.90
29729;DHT22;20055;51.498;11.960;2023-12-29T07:38:43;9.90;99.90
29729;DHT22;20055;51.498;11.960;2023-12-29T07:41:09;10.00;99.90
29729;DHT22;20055;51.498;11.960;2023-12-29T07:43:35;10.00;99.90
29729;DHT22;20055;51.498;11.960;2023-12-29T07:46:02;10.00;99.90
29729;DHT22;20055;51.498;11.960;2023-12-29T07:48:28;10.00;99.90
29729;DHT22;20055;51.498;11.960;2023-12-29T07:50:58;9.90;99.90
29729;DHT22;20055;51.498;11.960;2023-12-29T07:53:29;9.90;99.90
29729;DHT22;20055;51.498;11.960;2023-12-29T07:55:55;9.90;99.90
29729;DHT22;20055;51.498;11.960;2023-12-29T07:58:21;9.90;99.90
29729;DHT22;20055;51.498;11.960;2023-12-29T08:00:48;9.90;99.90
29729;DHT22;20055;51.498;11.960;2023-12-29T08:03:14;9.90;99.90
29729;DHT22;20055;51.498;11.960;2023-12-29T08:05:40;9.80;99.90
29729;DHT22;20055;51.498;11.960;2023-12-29T08:08:06;9.80;99.90
29729;DHT22;20055;51.498;11.960;2023-12-29T08:10:33;9.80;99.90
29729;DHT22;20055;51.498;11.960;2023-12-29T08:12:59;9.80;99.90
29729;DHT22;20055;51.498;11.960;2023-12-29T08:15:25;9.80;99.90
29729;DHT22;20055;51.498;11.960;2023-12-29T08:17:51;9.80;99.90
29729;DHT22;20055;51.498;11.960;2023-12-29T08:20:18;9.90;99.90
29729;DHT22;20055;51.498;11.960;2023-12-29T08:22:44;9.80;99.90
29729;DHT22;20055;51.498;11.960;2023-12-29T08:25:10;9.80;99.90
29729;DHT22;20055;51.498;11.960;2023-12-29T08:27:37;9.90;99.90
29729;DHT22;20055;51.498;11.960;2023-12-29T08:30:03;9.90;99.90
29729;DHT22;20055;51.498;11.960;2023-12-29T08:32:30;9.90;99.90
29729;DHT22;20055;51.498;11.960;2023-12-29T08:34:56;10.00;99.90
29729;DHT22;20055;51.498;11.960;2023-12-29T08:37:23;10.00;99.90
29729;DHT22;20055;51.498;11.960;2023-12-29T08:39:49;10.00;99.90
29729;DHT22;20055;51.498;11.960;2023-12-29T08:42:15;10.10;99.90
29729;DHT22;20055;51.498;11.960;2023-12-29T08:44:42;10.10;99.90
29729;DHT22;20055;51.498;11.960;2023-12-29T08:47:08;10.10;99.90
29729;DHT22;20055;51.498;11.960;2023-12-29T08:49:38;10.10;99.90
29729;DHT22;20055;51.498;11.960;2023-12-29T08:52:04;10.20;99.90
29729;DHT22;20055;51.498;11.960;2023-12-29T08:54:30;10.10;99.90
29729;DHT22;20055;51.498;11.960;2023-12-29T08:56:56;10.20;99.90
29729;DHT22;20055;51.498;11.960;2023-12-29T08:59:23;10.30;99.90
29729;DHT22;20055;51.498;11.960;2023-12-29T09:01:49;10.30;99.90
29729;DHT22;20055;51.498;11.960;2023-12-29T09:04:15;10.30;99.90
29729;DHT22;20055;51.498;11.960;2023-12-29T09:06:42;10.30;99.90
29729;DHT22;20055;51.498;11.960;2023-12-29T09:09:08;10.30;99.90
29729;DHT22;20055;51.498;11.960;2023-12-29T09:11:39;10.30;99.90
29729;DHT22;20055;51.498;11.960;2023-12-29T09:14:06;10.40;99.90
29729;DHT22;20055;51.498;11.960;2023-12-29T09:16:32;10.40;99.90
29729;DHT22;20055;51.498;11.960;2023-12-29T09:18:58;10.40;99.90
29729;DHT22;20055;51.498;11.960;2023-12-29T09:21:25;10.40;99.90
29729;DHT22;20055;51.498;11.960;2023-12-29T09:23:51;10.40;99.90
29729;DHT22;20055;51.498;11.960;2023-12-29T09:26:18;10.40;99.90
29729;DHT22;20055;51.498;11.960;2023-12-29T09:28:44;10.40;99.90
29729;DHT22;20055;51.498;11.960;2023-12-29T09:31:11;10.40;99.90
29729;DHT22;20055;51.498;11.960;2023-12-29T09:33:37;10.50;99.90
29729;DHT22;20055;51.498;11.960;2023-12-29T09:36:04;10.60;99.90
29729;DHT22;20055;51.498;11.960;2023-12-29T09:38:30;10.60;99.90
29729;DHT22;20055;51.498;11.960;2023-12-29T09:41:01;10.60;99.90
29729;DHT22;20055;51.498;11.960;2023-12-29T09:43:31;10.60;99.90
29729;DHT22;20055;51.498;11.960;2023-12-29T09:45:58;10.70;99.90
29729;DHT22;20055;51.498;11.960;2023-12-29T09:48:27;10.60;99.90
29729;DHT22;20055;51.498;11.960;2023-12-29T09:50:54;10.70;99.90
29729;DHT22;20055;51.498;11.960;2023-12-29T09:53:21;10.70;99.90
29729;DHT22;20055;51.498;11.960;2023-12-29T09:55:51;10.70;99.90
29729;DHT22;20055;51.498;11.960;2023-12-29T09:58:21;10.70;99.90
29729;DHT22;20055;51.498;11.960;2023-12-29T10:00:49;10.70;99.90
29729;DHT22;20055;51.498;11.960;2023-12-29T10:03:16;10.80;99.90
29729;DHT22;20055;51.498;11.960;2023-12-29T10:05:44;10.80;99.90
29729;DHT22;20055;51.498;11.960;2023-12-29T10:08:12;10.80;99.90
29729;DHT22;20055;51.498;11.960;2023-12-29T10:10:40;10.90;99.90
29729;DHT22;20055;51.498;11.960;2023-12-29T10:13:09;10.90;99.90
29729;DHT22;20055;51.498;11.960;2023-12-29T10:15:50;10.90;99.90
29729;DHT22;20055;51.498;11.960;2023-12-29T10:21:32;10.90;99.90
29729;DHT22;20055;51.498;11.960;2023-12-29T10:26:29;10.90;99.90
29729;DHT22;20055;51.498;11.960;2023-12-29T10:28:56;10.90;99.90
29729;DHT22;20055;51.498;11.960;2023-12-29T10:31:23;10.90;99.90
29729;DHT22;20055;51.498;11.960;2023-12-29T10:33:51;11.00;99.90
29729;DHT22;20055;51.498;11.960;2023-12-29T10:36:17;11.00;99.90
29729;DHT22;20055;51.498;11.960;2023-12-29T10:38:43;11.00;99.90
29729;DHT22;20055;51.498;11.960;2023-12-29T10:41:15;11.00;99.90
29729;DHT22;20055;51.498;11.960;2023-12-29T10:43:43;11.10;99.90
29729;DHT22;20055;51.498;11.960;2023-12-29T10:46:10;11.20;99.90
29729;DHT22;20055;51.498;11.960;2023-12-29T10:48:38;11.20;99.90
29729;DHT22;20055;51.498;11.960;2023-12-29T10:51:05;11.10;99.90
29729;DHT22;20055;51.498;11.960;2023-12-29T10:53:33;11.20;99.90
29729;DHT22;20055;51.498;11.960;2023-12-29T10:55:59;11.20;99.90
29729;DHT22;20055;51.498;11.960;2023-12-29T10:58:26;11.30;99.90
29729;DHT22;20055;51.498;11.960;2023-12-29T11:00:55;11.40;99.90
29729;DHT22;20055;51.498;11.960;2023-12-29T11:03:22;11.50;99.90
29729;DHT22;20055;51.498;11.960;2023-12-29T11:05:51;11.60;99.90
29729;DHT22;20055;51.498;11.960;2023-12-29T11:08:21;11.60;99.90
29729;DHT22;20055;51.498;11.960;2023-12-29T11:10:57;11.70;99.90
29729;DHT22;20055;51.498;11.960;2023-12-29T11:13:24;11.70;99.90
29729;DHT22;20055;51.498;11.960;2023-12-29T11:15:55;11.60;99.90
29729;DHT22;20055;51.498;11.960;2023-12-29T11:18:22;11.60;99.90
29729;DHT22;20055;51.498;11.960;2023-12-29T11:20:49;11.70;99.90
29729;DHT22;20055;51.498;11.960;2023-12-29T11:23:16;11.80;99.90
29729;DHT22;20055;51.498;11.960;2023-12-29T11:25:45;11.70;99.90
29729;DHT22;20055;51.498;11.960;2023-12-29T11:28:15;11.70;99.90
29729;DHT22;20055;51.498;11.960;2023-12-29T11:30:42;11.70;99.90
29729;DHT22;20055;51.498;11.960;2023-12-29T11:33:14;11.80;99.90
29729;DHT22;20055;51.498;11.960;2023-12-29T11:35:50;11.90;99.90
29729;DHT22;20055;51.498;11.960;2023-12-29T11:44:02;11.90;99.90
29729;DHT22;20055;51.498;11.960;2023-12-29T11:46:39;11.90;99.90
29729;DHT22;20055;51.498;11.960;2023-12-29T11:49:06;12.00;99.90
29729;DHT22;20055;51.498;11.960;2023-12-29T11:51:44;11.90;99.90
29729;DHT22;20055;51.498;11.960;2023-12-29T11:54:25;12.00;99.90
29729;DHT22;20055;51.498;11.960;2023-12-29T11:56:55;12.00;99.90
29729;DHT22;20055;51.498;11.960;2023-12-29T11:59:27;12.00;99.90
29729;DHT22;20055;51.498;11.960;2023-12-29T12:01:55;11.90;99.90
29729;DHT22;20055;51.498;11.960;2023-12-29T12:04:41;12.10;99.90
29729;DHT22;20055;51.498;11.960;2023-12-29T12:09:50;12.00;99.90
29729;DHT22;20055;51.498;11.960;2023-12-29T12:12:39;11.90;99.90
29729;DHT22;20055;51.498;11.960;2023-12-29T12:17:53;11.90;99.90
29729;DHT22;20055;51.498;11.960;2023-12-29T12:20:19;11.90;99.90
29729;DHT22;20055;51.498;11.960;2023-12-29T12:25:32;11.90;99.90
29729;DHT22;20055;51.498;11.960;2023-12-29T12:28:07;11.90;99.90
29729;DHT22;20055;51.498;11.960;2023-12-29T12:30:33;11.80;99.90
29729;DHT22;20055;51.498;11.960;2023-12-29T12:33:03;11.90;99.90
29729;DHT22;20055;51.498;11.960;2023-12-29T12:35:30;11.90;99.90
29729;DHT22;20055;51.498;11.960;2023-12-29T12:38:16;11.90;99.90
29729;DHT22;20055;51.498;11.960;2023-12-29T12:40:48;11.90;99.90
29729;DHT22;20055;51.498;11.960;2023-12-29T12:43:14;12.00;99.90
29729;DHT22;20055;51.498;11.960;2023-12-29T12:45:48;11.90;99.90
29729;DHT22;20055;51.498;11.960;2023-12-29T12:48:28;11.90;99.90
29729;DHT22;20055;51.498;11.960;2023-12-29T12:50:56;12.00;99.90
29729;DHT22;20055;51.498;11.960;2023-12-29T12:53:25;11.90;99.90
29729;DHT22;20055;51.498;11.960;2023-12-29T12:55:52;11.90;99.90
29729;DHT22;20055;51.498;11.960;2023-12-29T12:58:20;11.90;99.90
29729;DHT22;20055;51.498;11.960;2023-12-29T13:00:47;11.90;99.90
29729;DHT22;20055;51.498;11.960;2023-12-29T13:03:15;11.80;99.90
29729;DHT22;20055;51.498;11.960;2023-12-29T13:05:42;11.80;99.90
29729;DHT22;20055;51.498;11.960;2023-12-29T13:08:09;11.80;99.90
29729;DHT22;20055;51.498;11.960;2023-12-29T13:10:43;11.80;99.90
29729;DHT22;20055;51.498;11.960;2023-12-29T13:13:10;11.90;99.90
29729;DHT22;20055;51.498;11.960;2023-12-29T13:15:50;11.80;99.90
29729;DHT22;20055;51.498;11.960;2023-12-29T13:18:17;11.80;99.90
29729;DHT22;20055;51.498;11.960;2023-12-29T13:20:46;11.80;99.90
29729;DHT22;20055;51.498;11.960;2023-12-29T13:23:13;11.80;99.90
29729;DHT22;20055;51.498;11.960;2023-12-29T13:25:40;11.80;99.90
29729;DHT22;20055;51.498;11.960;2023-12-29T13:28:09;11.70;99.90
29729;DHT22;20055;51.498;11.960;2023-12-29T13:30:37;11.70;99.90
29729;DHT22;20055;51.498;11.960;2023-12-29T13:33:12;11.70;99.90
29729;DHT22;20055;51.498;11.960;2023-12-29T13:35:49;11.80;99.90
29729;DHT22;20055;51.498;11.960;2023-12-29T13:38:26;11.60;99.90
29729;DHT22;20055;51.498;11.960;2023-12-29T13:41:05;11.60;99.90
29729;DHT22;20055;51.498;11.960;2023-12-29T13:43:35;11.60;99.90
29729;DHT22;20055;51.498;11.960;2023-12-29T13:46:02;11.70;99.90
29729;DHT22;20055;51.498;11.960;2023-12-29T13:48:29;11.70;99.90
29729;DHT22;20055;51.498;11.960;2023-12-29T13:50:57;11.70;99.90
29729;DHT22;20055;51.498;11.960;2023-12-29T13:53:23;11.70;99.90
29729;DHT22;20055;51.498;11.960;2023-12-29T13:55:50;11.70;99.90
29729;DHT22;20055;51.498;11.960;2023-12-29T13:58:16;11.60;99.90
29729;DHT22;20055;51.498;11.960;2023-12-29T14:00:43;11.60;99.90
29729;DHT22;20055;51.498;11.960;2023-12-29T14:03:30;11.60;99.90
29729;DHT22;20055;51.498;11.960;2023-12-29T14:06:08;11.60;99.90
29729;DHT22;20055;51.498;11.960;2023-12-29T14:08:45;11.60;99.90
29729;DHT22;20055;51.498;11.960;2023-12-29T14:11:11;11.60;99.90
29729;DHT22;20055;51.498;11.960;2023-12-29T14:13:46;11.60;99.90
29729;DHT22;20055;51.498;11.960;2023-12-29T14:16:15;11.50;99.90
29729;DHT22;20055;51.498;11.960;2023-12-29T14:24:09;11.70;99.90
29729;DHT22;20055;51.498;11.960;2023-12-29T14:26:53;11.60;99.90
29729;DHT22;20055;51.498;11.960;2023-12-29T14:29:20;11.60;99.90
29729;DHT22;20055;51.498;11.960;2023-12-29T14:31:47;11.60;99.90
29729;DHT22;20055;51.498;11.960;2023-12-29T14:34:14;11.60;99.90
29729;DHT22;20055;51.498;11.960;2023-12-29T14:36:41;11.60;99.90
29729;DHT22;20055;51.498;11.960;2023-12-29T14:39:08;11.60;99.90
29729;DHT22;20055;51.498;11.960;2023-12-29T14:41:36;11.70;99.90
29729;DHT22;20055;51.498;11.960;2023-12-29T14:44:02;11.60;99.90
29729;DHT22;20055;51.498;11.960;2023-12-29T14:46:28;11.60;99.90
29729;DHT22;20055;51.498;11.960;2023-12-29T14:48:59;11.60;99.90
29729;DHT22;20055;51.498;11.960;2023-12-29T14:51:25;11.60;99.90
29729;DHT22;20055;51.498;11.960;2023-12-29T14:53:51;11.70;99.90
29729;DHT22;20055;51.498;11.960;2023-12-29T14:56:18;11.60;99.90
29729;DHT22;20055;51.498;11.960;2023-12-29T14:58:44;11.60;99.90
29729;DHT22;20055;51.498;11.960;2023-12-29T15:01:11;11.60;99.90
29729;DHT22;20055;51.498;11.960;2023-12-29T15:03:38;11.60;99.90
29729;DHT22;20055;51.498;11.960;2023-12-29T15:06:04;11.60;99.90
29729;DHT22;20055;51.498;11.960;2023-12-29T15:08:31;11.60;99.90
29729;DHT22;20055;51.498;11.960;2023-12-29T15:11:02;11.50;99.90
29729;DHT22;20055;51.498;11.960;2023-12-29T15:13:28;11.40;99.90
29729;DHT22;20055;51.498;11.960;2023-12-29T15:15:57;11.40;99.90
29729;DHT22;20055;51.498;11.960;2023-12-29T15:18:28;11.30;99.90
29729;DHT22;20055;51.498;11.960;2023-12-29T15:20:57;11.40;99.90
29729;DHT22;20055;51.498;11.960;2023-12-29T15:23:23;11.30;99.90
29729;DHT22;20055;51.498;11.960;2023-12-29T15:25:50;11.40;99.90
29729;DHT22;20055;51.498;11.960;2023-12-29T15:28:17;11.40;99.90
29729;DHT22;20055;51.498;11.960;2023-12-29T15:30:44;11.40;99.90
29729;DHT22;20055;51.498;11.960;2023-12-29T15:33:12;11.30;99.90
29729;DHT22;20055;51.498;11.960;2023-12-29T15:35:39;11.30;99.90
29729;DHT22;20055;51.498;11.960;2023-12-29T15:38:07;11.40;99.90
29729;DHT22;20055;51.498;11.960;2023-12-29T15:40:33;11.40;99.90
29729;DHT22;20055;51.498;11.960;2023-12-29T15:43:00;11.40;99.90
29729;DHT22;20055;51.498;11.960;2023-12-29T15:45:26;11.40;99.90
29729;DHT22;20055;51.498;11.960;2023-12-29T15:47:52;11.40;99.90
29729;DHT22;20055;51.498;11.960;2023-12-29T15:50:18;11.40;99.90
29729;DHT22;20055;51.498;11.960;2023-12-29T15:52:45;11.50;99.90